TAF and METAR

Decoding for American and Canadian METARs and TAFs is not fully implemented.

Could not understand the following METAR

CWEU 251300Z 28006KT 15SM -SN SCT018 SCT060 BKN084 M08/M10 A2962 RMK SC3SC1AC1 VIS N 6 SLP033
No TAF available for Eureka